Friendship S — J8B5036 — position and weather

sailwx.info

Track history (hours):
 
Tides and Currents Weather Stations Pressure Air Temp Water Temp Dewpoint Dewpoint Depression Visibility Wind Speed Wind Dir Waves Ship Positions

Friendship S

Last reported at 2018-Jul-20 21:57 UTC. Time now 2018-Jul-21 17:40 UTC.
Position N 37°11' W 009°49'.

Length 80 m; draft 3 m.

Type: Cargo ship. MMSI: 375494000.

Date/timePositionNaut miles runAvg speedWind from/ knotsBaromVisibWave heightAir tempDewpointWater temp
2018-Jul-20 21:57N 37°11' W 009°49'17 9.0
2018-Jul-20 20:03N 37°28' W 009°50'3 9.3
2018-Jul-20 19:43N 37°31' W 009°51'12 9.3
2018-Jul-20 18:25N 37°43' W 009°51'4 9.3
2018-Jul-20 18:00N 37°47' W 009°51'5 9.1
2018-Jul-20 17:27N 37°52' W 009°52'4 8.8
2018-Jul-20 16:59N 37°56' W 009°52'4 8.8
2018-Jul-20 16:30N 38°01' W 009°53'5 9.0
2018-Jul-20 16:00N 38°05' W 009°53'5 9.0
2018-Jul-20 15:30N 38°10' W 009°54'4 9.0
2018-Jul-20 15:00N 38°14' W 009°56'6 9.0
2018-Jul-20 14:22N 38°19' W 009°59'4 9.0
2018-Jul-20 13:57N 38°23' W 009°60'4 8.9
2018-Jul-20 13:30N 38°27' W 010°01'4 8.9
2018-Jul-20 13:00N 38°31' W 010°03'4 8.8
2018-Jul-20 12:30N 38°35' W 010°04'5 8.9
2018-Jul-20 12:00N 38°40' W 010°05'4 8.8
2018-Jul-20 11:30N 38°44' W 010°06'4 8.8
2018-Jul-20 11:00N 38°48' W 010°06'4 9.0
2018-Jul-20 10:30N 38°53' W 010°06'5 9.2
2018-Jul-20 10:00N 38°57' W 010°06'5 9.2
2018-Jul-20 09:30N 39°02' W 010°05'4 8.9
2018-Jul-20 09:00N 39°06' W 010°05'5 9.1
2018-Jul-20 08:29N 39°11' W 010°05'327 6.9
2018-Jul-18 08:57N 43°45' W 006°07'5 9.1
2018-Jul-18 08:23N 43°44' W 005°60'4 8.9
2018-Jul-18 07:58N 43°44' W 005°55'4 9.0
2018-Jul-18 07:29N 43°43' W 005°49'4 8.9
2018-Jul-18 07:00N 43°42' W 005°43'5 9.0
2018-Jul-18 06:29N 43°42' W 005°37'4 9.0
2018-Jul-18 06:00N 43°41' W 005°31'4 8.5
2018-Jul-18 05:29N 43°41' W 005°25'5 8.6
2018-Jul-18 04:57N 43°40' W 005°18'6 8.7
2018-Jul-18 04:18N 43°39' W 005°11'3 8.8
2018-Jul-18 03:58N 43°39' W 005°07'4 8.5
2018-Jul-18 03:28N 43°38' W 005°01'  
Track history (hours):
 
Tides and Currents Weather Stations Pressure Air Temp Water Temp Dewpoint Dewpoint Depression Visibility Wind Speed Wind Dir Waves Ship Positions

Friendship S

Last reported at 2018-Jul-20 21:57 UTC. Time now 2018-Jul-21 17:40 UTC.
Position N 37°11' W 009°49'.

Length 80 m; draft 3 m.

Type: Cargo ship. MMSI: 375494000.

Date/timePositionNaut miles runAvg speedWind from/ knotsBaromVisibWave heightAir tempDewpointWater temp
2018-Jul-20 21:57N 37°11' W 009°49'17 9.0
2018-Jul-20 20:03N 37°28' W 009°50'3 9.3
2018-Jul-20 19:43N 37°31' W 009°51'12 9.3
2018-Jul-20 18:25N 37°43' W 009°51'4 9.3
2018-Jul-20 18:00N 37°47' W 009°51'5 9.1
2018-Jul-20 17:27N 37°52' W 009°52'4 8.8
2018-Jul-20 16:59N 37°56' W 009°52'4 8.8
2018-Jul-20 16:30N 38°01' W 009°53'5 9.0
2018-Jul-20 16:00N 38°05' W 009°53'5 9.0
2018-Jul-20 15:30N 38°10' W 009°54'4 9.0
2018-Jul-20 15:00N 38°14' W 009°56'6 9.0
2018-Jul-20 14:22N 38°19' W 009°59'4 9.0
2018-Jul-20 13:57N 38°23' W 009°60'4 8.9
2018-Jul-20 13:30N 38°27' W 010°01'4 8.9
2018-Jul-20 13:00N 38°31' W 010°03'4 8.8
2018-Jul-20 12:30N 38°35' W 010°04'5 8.9
2018-Jul-20 12:00N 38°40' W 010°05'4 8.8
2018-Jul-20 11:30N 38°44' W 010°06'4 8.8
2018-Jul-20 11:00N 38°48' W 010°06'4 9.0
2018-Jul-20 10:30N 38°53' W 010°06'5 9.2
2018-Jul-20 10:00N 38°57' W 010°06'5 9.2
2018-Jul-20 09:30N 39°02' W 010°05'4 8.9
2018-Jul-20 09:00N 39°06' W 010°05'5 9.1
2018-Jul-20 08:29N 39°11' W 010°05'327 6.9
2018-Jul-18 08:57N 43°45' W 006°07'5 9.1
2018-Jul-18 08:23N 43°44' W 005°60'4 8.9
2018-Jul-18 07:58N 43°44' W 005°55'4 9.0
2018-Jul-18 07:29N 43°43' W 005°49'4 8.9
2018-Jul-18 07:00N 43°42' W 005°43'5 9.0
2018-Jul-18 06:29N 43°42' W 005°37'4 9.0
2018-Jul-18 06:00N 43°41' W 005°31'4 8.5
2018-Jul-18 05:29N 43°41' W 005°25'5 8.6
2018-Jul-18 04:57N 43°40' W 005°18'6 8.7
2018-Jul-18 04:18N 43°39' W 005°11'3 8.8
2018-Jul-18 03:58N 43°39' W 005°07'4 8.5
2018-Jul-18 03:28N 43°38' W 005°01'  

Dump ship's entire track history